Time;durP1;ratioP1;P1;durP2;ratioP2;P2;SDS_P1;SDS_P2;PMS_P1;PMS_P2;Temp;Humidity;BMP_temperature;BMP_pressure;BME280_temperature;BME280_humidity;BME280_pressure;Samples;Min_cycle;Max_cycle;Signal;HPM_P1;HPM_P2
2023/05/12 00:01:24;;;;;;;6.63;4.10;;;13.90;99.90;;;;;;20855377;28;20299;-73
2023/05/12 00:11:26;;;;;;;8.90;4.40;;;13.90;99.90;;;;;;20839285;28;20212;-74
2023/05/12 00:21:28;;;;;;;4.50;4.10;;;14.00;99.90;;;;;;20838762;28;20248;-74
2023/05/12 00:31:29;;;;;;;6.13;4.20;;;14.00;99.90;;;;;;20836357;28;20734;-74
2023/05/12 00:41:31;;;;;;;7.70;4.23;;;14.00;99.90;;;;;;20837049;28;20746;-74
2023/05/12 00:51:33;;;;;;;9.83;4.77;;;14.00;99.90;;;;;;20836417;28;20663;-73
2023/05/12 01:01:35;;;;;;;6.33;5.17;;;14.00;99.90;;;;;;20835832;28;20820;-74
2023/05/12 01:11:37;;;;;;;6.07;5.13;;;14.00;99.90;;;;;;20834623;28;20208;-74
2023/05/12 01:21:39;;;;;;;11.00;5.30;;;14.00;99.90;;;;;;20833414;28;20305;-74
2023/05/12 01:31:41;;;;;;;6.70;5.10;;;14.00;99.90;;;;;;20833617;28;20216;-73
2023/05/12 01:41:43;;;;;;;6.10;5.27;;;14.00;99.90;;;;;;20831867;28;20239;-73
2023/05/12 01:51:44;;;;;;;6.33;5.47;;;13.90;99.90;;;;;;20831655;28;20221;-74
2023/05/12 02:01:46;;;;;;;6.67;5.60;;;13.90;99.90;;;;;;20831302;28;20311;-73
2023/05/12 02:11:48;;;;;;;6.70;5.20;;;13.90;99.90;;;;;;20830706;28;20266;-73
2023/05/12 02:21:50;;;;;;;5.70;5.13;;;13.80;99.90;;;;;;20829795;28;20248;-69
2023/05/12 02:31:51;;;;;;;5.53;5.00;;;13.80;99.90;;;;;;20830181;28;20205;-70
2023/05/12 02:41:53;;;;;;;5.50;5.00;;;13.80;99.90;;;;;;20829342;28;20239;-73
2023/05/12 02:51:55;;;;;;;6.87;5.30;;;13.90;99.90;;;;;;20832138;28;20205;-76
2023/05/12 03:01:56;;;;;;;6.57;5.40;;;13.80;99.90;;;;;;20845079;28;20242;-76
2023/05/12 03:11:58;;;;;;;5.80;5.20;;;13.80;99.90;;;;;;20843950;28;20635;-76
2023/05/12 03:22:02;;;;;;;6.50;5.40;;;13.70;99.90;;;;;;20842829;28;20247;-76
2023/05/12 03:32:04;;;;;;;5.40;4.90;;;13.70;99.90;;;;;;20842682;28;20614;-75
2023/05/12 03:42:05;;;;;;;7.60;5.10;;;13.70;99.90;;;;;;20841512;28;20642;-73
2023/05/12 03:52:07;;;;;;;8.43;5.80;;;13.60;99.90;;;;;;20840943;28;20212;-77
2023/05/12 04:02:11;;;;;;;6.60;5.67;;;13.70;99.90;;;;;;20839771;28;20295;-73
2023/05/12 04:12:13;;;;;;;6.57;5.77;;;13.70;99.90;;;;;;20839273;28;20287;-75
2023/05/12 04:22:15;;;;;;;6.17;5.13;;;13.80;99.90;;;;;;20838492;28;20228;-74
2023/05/12 04:32:17;;;;;;;7.73;5.23;;;13.80;99.90;;;;;;20838423;28;20660;-74
2023/05/12 04:42:18;;;;;;;5.83;5.17;;;13.90;99.90;;;;;;20836981;28;20237;-77
2023/05/12 04:52:21;;;;;;;8.93;5.17;;;13.90;99.90;;;;;;20836430;28;20209;-76
2023/05/12 05:02:26;;;;;;;5.67;5.07;;;14.00;99.90;;;;;;20836417;28;20235;-77
2023/05/12 05:12:28;;;;;;;14.90;7.20;;;13.90;99.90;;;;;;20860440;28;20290;-71
2023/05/12 05:22:30;;;;;;;6.23;5.53;;;13.90;99.90;;;;;;20844312;28;20231;-73
2023/05/12 05:32:33;;;;;;;10.87;7.20;;;13.90;99.90;;;;;;20833476;28;20212;-76
2023/05/12 05:42:35;;;;;;;8.20;5.60;;;13.90;99.90;;;;;;20846461;28;20303;-75
2023/05/12 05:52:36;;;;;;;6.47;5.30;;;13.90;99.90;;;;;;20829772;28;20236;-76
2023/05/12 06:02:38;;;;;;;6.47;5.80;;;13.90;99.90;;;;;;20830025;28;20236;-77
2023/05/12 06:12:41;;;;;;;11.37;6.10;;;14.00;99.90;;;;;;20828768;28;20243;-79
2023/05/12 06:22:43;;;;;;;8.87;5.90;;;14.10;99.90;;;;;;20829078;28;20238;-76
2023/05/12 06:32:45;;;;;;;6.93;5.57;;;14.10;99.90;;;;;;20829052;28;20236;-78
2023/05/12 06:42:47;;;;;;;10.67;5.83;;;14.40;99.90;;;;;;20826067;28;20240;-78
2023/05/12 06:52:49;;;;;;;30.37;19.57;;;14.50;99.90;;;;;;20824916;28;20291;-77
2023/05/12 07:02:51;;;;;;;7.50;6.70;;;14.70;99.90;;;;;;20830651;28;20229;-72
2023/05/12 07:12:53;;;;;;;8.07;5.90;;;14.90;99.90;;;;;;20945312;28;20241;-75
2023/05/12 07:22:55;;;;;;;6.80;5.73;;;15.00;99.90;;;;;;20964742;28;20687;-69
2023/05/12 07:32:57;;;;;;;10.23;5.60;;;15.10;99.90;;;;;;20842861;28;20205;-74
2023/05/12 07:42:58;;;;;;;7.60;4.97;;;15.10;99.90;;;;;;20835165;28;20317;-71
2023/05/12 07:53:00;;;;;;;11.00;6.80;;;15.80;99.90;;;;;;20839020;28;20657;-68
2023/05/12 08:03:02;;;;;;;5.30;4.50;;;15.90;99.90;;;;;;20838141;28;20306;-70
2023/05/12 08:13:05;;;;;;;12.30;5.90;;;16.00;99.40;;;;;;20843865;28;20441;-79
2023/05/12 08:23:06;;;;;;;7.40;4.63;;;16.00;99.30;;;;;;20868530;28;20580;-74
2023/05/12 08:33:08;;;;;;;5.83;3.97;;;15.90;98.90;;;;;;20837880;28;20269;-78
2023/05/12 08:43:31;;;;;;;4.53;4.03;;;15.90;98.30;;;;;;20836691;28;20661;-76
2023/05/12 08:53:35;;;;;;;4.90;4.10;;;15.90;98.80;;;;;;20836578;28;20253;-76
2023/05/12 09:03:37;;;;;;;5.60;4.30;;;16.00;98.80;;;;;;20837754;28;20324;-68
2023/05/12 09:13:59;;;;;;;5.23;3.60;;;16.10;99.10;;;;;;20835986;28;20233;-71
2023/05/12 09:24:06;;;;;;;3.90;3.47;;;16.40;98.80;;;;;;20833432;28;20248;-74
2023/05/12 09:34:08;;;;;;;7.43;3.60;;;16.70;98.10;;;;;;20833098;28;20291;-76
2023/05/12 09:44:15;;;;;;;65.67;5.50;;;16.80;98.50;;;;;;20828519;28;20724;-71
2023/05/12 09:54:30;;;;;;;11.43;4.10;;;17.30;98.10;;;;;;20828938;28;20213;-73
2023/05/12 10:04:45;;;;;;;6.97;3.63;;;17.50;98.40;;;;;;20870094;28;20743;-76
2023/05/12 10:14:48;;;;;;;5.47;3.40;;;17.90;97.50;;;;;;20877516;28;20327;-76
2023/05/12 10:24:52;;;;;;;3.90;3.40;;;17.90;97.20;;;;;;20866643;28;20265;-75
2023/05/12 10:34:53;;;;;;;3.10;2.80;;;18.00;97.30;;;;;;20872337;28;20260;-78
2023/05/12 10:44:55;;;;;;;2.90;2.63;;;17.70;96.90;;;;;;20865911;28;20266;-76
2023/05/12 10:55:02;;;;;;;5.43;3.33;;;18.00;96.90;;;;;;20864990;28;20222;-81
2023/05/12 11:05:10;;;;;;;4.00;3.37;;;18.20;96.00;;;;;;20865915;28;20245;-83
2023/05/12 11:15:15;;;;;;;2.93;2.63;;;18.50;96.00;;;;;;20871167;28;20228;-81
2023/05/12 11:25:18;;;;;;;8.20;2.80;;;18.80;95.60;;;;;;20882799;28;20241;-81
2023/05/12 11:35:21;;;;;;;2.93;2.03;;;18.80;94.50;;;;;;20880145;28;20223;-73
2023/05/12 11:45:27;;;;;;;3.23;2.23;;;19.10;93.90;;;;;;20870032;28;20290;-81
2023/05/12 11:55:29;;;;;;;4.17;2.43;;;19.70;92.80;;;;;;20859835;28;20266;-78
2023/05/12 12:05:31;;;;;;;2.37;2.17;;;19.20;91.50;;;;;;20891030;28;20303;-77
2023/05/12 12:15:33;;;;;;;5.27;2.30;;;18.80;91.40;;;;;;20891383;28;20687;-78
2023/05/12 12:25:34;;;;;;;3.83;1.90;;;19.00;91.10;;;;;;20917936;28;20606;-78
2023/05/12 12:35:36;;;;;;;2.77;2.00;;;19.40;90.40;;;;;;20919927;28;20663;-81
2023/05/12 12:45:38;;;;;;;2.37;2.03;;;19.40;90.00;;;;;;20920677;28;20208;-80
2023/05/12 12:55:39;;;;;;;1.97;1.77;;;19.60;88.90;;;;;;20930721;28;20623;-80
2023/05/12 13:05:41;;;;;;;2.23;1.90;;;20.20;87.60;;;;;;20925368;28;20213;-78
2023/05/12 13:15:43;;;;;;;6.93;2.60;;;20.70;84.80;;;;;;20884400;28;20240;-77
2023/05/12 13:25:45;;;;;;;3.30;2.10;;;20.40;82.40;;;;;;20947786;28;20211;-77
2023/05/12 13:35:47;;;;;;;4.53;2.70;;;19.50;82.20;;;;;;20977270;28;20206;-75
2023/05/12 13:45:48;;;;;;;3.60;2.03;;;18.80;83.00;;;;;;20993583;28;20208;-75
2023/05/12 13:55:50;;;;;;;3.20;2.10;;;18.50;84.40;;;;;;20913121;28;20252;-75
2023/05/12 14:05:51;;;;;;;4.13;2.27;;;18.40;84.70;;;;;;20912888;28;20670;-76
2023/05/12 14:15:53;;;;;;;3.33;2.37;;;18.30;84.40;;;;;;20912809;28;20673;-79
2023/05/12 14:25:56;;;;;;;3.00;2.53;;;18.30;85.40;;;;;;20911801;28;20249;-76
2023/05/12 14:35:58;;;;;;;5.03;2.70;;;18.20;87.30;;;;;;20895869;28;20212;-79
2023/05/12 14:46:09;;;;;;;2.43;2.23;;;18.10;89.50;;;;;;20901441;28;20221;-73
2023/05/12 14:56:11;;;;;;;2.10;1.90;;;17.80;90.90;;;;;;20974231;28;20225;-76
2023/05/12 15:06:12;;;;;;;2.70;2.20;;;17.70;91.00;;;;;;20936905;28;20255;-78
2023/05/12 15:16:17;;;;;;;4.77;3.20;;;17.80;90.00;;;;;;20957933;28;20247;-81
2023/05/12 15:26:19;;;;;;;1.83;1.70;;;17.80;90.10;;;;;;20924999;28;20577;-77
2023/05/12 15:36:34;;;;;;;1.90;1.70;;;17.90;87.20;;;;;;20924942;28;20692;-82
2023/05/12 15:46:36;;;;;;;4.43;2.30;;;18.00;87.00;;;;;;20906336;28;20203;-79
2023/05/12 15:56:38;;;;;;;2.80;2.30;;;17.80;86.30;;;;;;20923252;28;20240;-79
2023/05/12 16:06:39;;;;;;;2.23;2.00;;;17.50;86.40;;;;;;20839073;28;20201;-76
2023/05/12 16:16:46;;;;;;;2.87;2.33;;;17.60;86.90;;;;;;20838916;28;20723;-78
2023/05/12 16:26:48;;;;;;;2.60;2.40;;;17.80;87.20;;;;;;20838176;28;20216;-76
2023/05/12 16:36:51;;;;;;;3.00;2.40;;;18.00;85.40;;;;;;20844344;28;20242;-81
2023/05/12 16:46:53;;;;;;;3.53;2.40;;;18.00;86.10;;;;;;20906344;28;20747;-78
2023/05/12 16:56:55;;;;;;;2.97;2.70;;;18.00;86.60;;;;;;20950474;28;20308;-77
2023/05/12 17:06:57;;;;;;;5.80;3.03;;;17.90;87.20;;;;;;20919238;28;20218;-77
2023/05/12 17:16:58;;;;;;;4.93;2.93;;;17.70;87.50;;;;;;20917816;28;20234;-78
2023/05/12 17:27:00;;;;;;;4.87;2.93;;;17.60;88.50;;;;;;20916729;28;20273;-77
2023/05/12 17:37:04;;;;;;;4.57;3.13;;;17.50;88.80;;;;;;20915672;28;20247;-78
2023/05/12 17:47:06;;;;;;;4.53;3.03;;;17.40;89.60;;;;;;20898032;28;20199;-74
2023/05/12 17:57:08;;;;;;;3.23;2.70;;;17.20;90.10;;;;;;20878551;28;20247;-76
2023/05/12 18:07:10;;;;;;;3.83;2.80;;;17.10;90.20;;;;;;20884025;28;20212;-76
2023/05/12 18:17:11;;;;;;;4.40;3.70;;;17.00;90.80;;;;;;20916542;28;20777;-76
2023/05/12 18:27:13;;;;;;;4.80;4.30;;;16.80;91.30;;;;;;20886338;28;20211;-77
2023/05/12 18:37:16;;;;;;;5.83;3.70;;;16.60;92.00;;;;;;20898459;28;20227;-78
2023/05/12 18:47:18;;;;;;;6.37;3.60;;;16.20;92.50;;;;;;20909321;28;20198;-74
2023/05/12 18:57:19;;;;;;;7.80;4.50;;;15.90;93.70;;;;;;20909000;28;20220;-75
2023/05/12 19:07:21;;;;;;;5.33;4.63;;;15.70;94.50;;;;;;20908587;28;20257;-76
2023/05/12 19:17:23;;;;;;;8.13;4.90;;;15.40;95.30;;;;;;20908732;28;20295;-77
2023/05/12 19:27:25;;;;;;;7.23;5.17;;;15.10;95.80;;;;;;20909604;28;20196;-78
2023/05/12 19:37:28;;;;;;;7.37;6.40;;;14.90;96.50;;;;;;20914584;28;20231;-76
2023/05/12 19:47:30;;;;;;;7.47;5.40;;;15.80;97.80;;;;;;20921622;28;20262;-74
2023/05/12 19:57:32;;;;;;;9.07;5.00;;;14.40;97.90;;;;;;20877764;28;20229;-73
2023/05/12 20:07:33;;;;;;;11.57;6.17;;;14.20;98.50;;;;;;20920500;28;20236;-72
2023/05/12 20:17:35;;;;;;;8.80;5.80;;;14.00;98.90;;;;;;20919768;28;20618;-73
2023/05/12 20:27:37;;;;;;;11.80;5.70;;;13.80;99.50;;;;;;20919210;28;20628;-72
2023/05/12 20:37:39;;;;;;;11.07;6.20;;;13.70;99.80;;;;;;20918766;28;20234;-72
2023/05/12 20:47:41;;;;;;;7.43;6.03;;;13.60;99.90;;;;;;20870580;28;20273;-72
2023/05/12 20:57:43;;;;;;;7.17;5.70;;;13.40;99.90;;;;;;20871749;28;20272;-72
2023/05/12 21:07:45;;;;;;;8.43;5.93;;;13.30;99.90;;;;;;20854120;28;20216;-72
2023/05/12 21:17:46;;;;;;;8.37;5.87;;;13.30;99.90;;;;;;20832354;28;20252;-72
2023/05/12 21:27:48;;;;;;;10.47;5.70;;;13.10;99.90;;;;;;20831705;28;20240;-72
2023/05/12 21:37:50;;;;;;;7.03;5.53;;;12.90;99.90;;;;;;20831024;28;20240;-72
2023/05/12 21:47:52;;;;;;;10.40;6.00;;;12.80;99.90;;;;;;20828501;28;20249;-71
2023/05/12 21:57:54;;;;;;;6.37;5.70;;;12.70;99.90;;;;;;20825834;28;20757;-71
2023/05/12 22:07:55;;;;;;;6.53;5.23;;;12.50;99.90;;;;;;20830886;28;20207;-72
2023/05/12 22:17:57;;;;;;;7.93;5.50;;;12.40;99.90;;;;;;20830907;28;20574;-72
2023/05/12 22:27:59;;;;;;;11.80;5.80;;;12.20;99.90;;;;;;20830354;28;20743;-71
2023/05/12 22:38:02;;;;;;;8.43;5.47;;;12.20;99.90;;;;;;20829941;28;20796;-72
2023/05/12 22:48:03;;;;;;;7.13;5.20;;;12.20;99.90;;;;;;20829527;28;20213;-72
2023/05/12 22:58:05;;;;;;;7.00;5.70;;;12.20;99.90;;;;;;20829407;28;20714;-72
2023/05/12 23:08:07;;;;;;;12.73;6.80;;;11.90;99.90;;;;;;20830754;28;20215;-75
2023/05/12 23:18:09;;;;;;;12.90;6.20;;;11.90;99.90;;;;;;20843979;28;20312;-73
2023/05/12 23:28:10;;;;;;;8.67;6.30;;;11.90;99.90;;;;;;20843695;28;20671;-72
2023/05/12 23:38:12;;;;;;;10.30;6.73;;;11.80;99.90;;;;;;20842628;28;20726;-75
2023/05/12 23:48:14;;;;;;;8.60;6.13;;;11.80;99.90;;;;;;20841949;28;20206;-74
2023/05/12 23:58:15;;;;;;;6.37;5.60;;;11.80;99.90;;;;;;20841167;28;20239;-72
